Time;durP1;ratioP1;P1;durP2;ratioP2;P2;SDS_P1;SDS_P2;PMS_P1;PMS_P2;Temp;Humidity;BMP_temperature;BMP_pressure;BME280_temperature;BME280_humidity;BME280_pressure;Samples;Min_cycle;Max_cycle;Signal;HPM_P1;HPM_P2
2023/07/26 00:00:37;;;;;;;153.18;143.73;;;12.50;77.10;;;;;;4913388;29;20102;-90
2023/07/26 00:03:07;;;;;;;174.68;164.13;;;12.50;77.00;;;;;;4893153;29;20051;-91
2023/07/26 00:05:33;;;;;;;190.60;179.43;;;12.50;77.00;;;;;;4917205;29;20051;-90
2023/07/26 00:08:07;;;;;;;187.88;176.40;;;12.50;77.10;;;;;;4881137;29;20532;-90
2023/07/26 00:10:33;;;;;;;152.20;142.85;;;12.50;77.10;;;;;;4918657;29;20059;-90
2023/07/26 00:13:04;;;;;;;171.40;160.60;;;12.50;77.10;;;;;;4904383;29;20066;-90
2023/07/26 00:15:30;;;;;;;153.55;144.35;;;12.50;77.10;;;;;;4920152;29;20081;-90
2023/07/26 00:17:56;;;;;;;170.68;160.90;;;12.50;77.20;;;;;;4913581;28;20137;-91
2023/07/26 00:20:22;;;;;;;204.75;191.35;;;12.50;77.10;;;;;;4922141;29;20544;-90
2023/07/26 00:22:57;;;;;;;157.00;147.40;;;12.50;77.20;;;;;;4895802;29;20044;-91
2023/07/26 00:25:23;;;;;;;174.93;164.65;;;12.40;77.20;;;;;;4905891;29;20067;-91
2023/07/26 00:27:52;;;;;;;210.50;197.60;;;12.40;77.20;;;;;;4921732;29;20075;-93
2023/07/26 00:30:25;;;;;;;206.68;193.57;;;12.50;77.20;;;;;;4909597;29;20043;-92
2023/07/26 00:33:00;;;;;;;184.75;173.10;;;12.50;77.20;;;;;;4897795;29;20050;-92
2023/07/26 00:35:40;;;;;;;161.48;151.55;;;12.40;77.30;;;;;;4924029;29;20596;-90
2023/07/26 00:38:06;;;;;;;155.95;146.60;;;12.40;77.30;;;;;;4933550;29;20050;-91
2023/07/26 00:40:32;;;;;;;204.52;191.77;;;12.40;77.30;;;;;;4922879;29;20055;-91
2023/07/26 00:42:58;;;;;;;200.50;188.15;;;12.50;77.40;;;;;;4932979;29;20081;-90
2023/07/26 00:45:27;;;;;;;201.63;189.00;;;12.50;77.30;;;;;;4924829;29;20158;-90
2023/07/26 00:47:53;;;;;;;203.55;191.27;;;12.50;77.40;;;;;;4929105;28;20046;-91
2023/07/26 00:50:19;;;;;;;176.10;165.32;;;12.40;77.30;;;;;;4954981;28;20047;-91
2023/07/26 00:52:48;;;;;;;170.45;160.13;;;12.50;77.30;;;;;;4924258;28;20533;-92
2023/07/26 00:55:18;;;;;;;153.02;143.85;;;12.50;77.20;;;;;;4950977;29;20502;-91
2023/07/26 00:57:49;;;;;;;241.02;224.43;;;12.50;77.20;;;;;;4897817;29;20517;-92
2023/07/26 01:00:18;;;;;;;274.80;257.00;;;12.50;77.30;;;;;;4934893;29;20055;-89
2023/07/26 01:02:59;;;;;;;223.93;209.45;;;12.40;78.10;;;;;;4952922;28;20079;-92
2023/07/26 01:05:34;;;;;;;195.93;183.07;;;12.30;78.10;;;;;;4922253;29;20118;-91
2023/07/26 01:08:38;;;;;;;179.00;167.00;;;12.30;78.50;;;;;;4912756;28;20059;-92
2023/07/26 01:11:48;;;;;;;;;;;;;;;;;;;;;
2023/07/26 01:14:53;;;;;;;;;;;;;;;;;;;;;
2023/07/26 01:17:42;;;;;;;;;;;;;;;;;;;;;
2023/07/26 01:21:05;;;;;;;110.30;102.60;;;12.20;79.00;;;;;;4886413;29;20096;-95
2023/07/26 01:28:00;;;;;;;61.67;56.88;;;12.10;79.30;;;;;;4815940;29;20442;-92
2023/07/26 01:30:58;;;;;;;;;;;;;;;;;;;;;
2023/07/26 01:34:15;;;;;;;;;;;;;;;;;;;;;
2023/07/26 01:37:07;;;;;;;54.33;50.20;;;12.10;79.80;;;;;;4871006;29;20152;-92
2023/07/26 01:43:57;;;;;;;69.93;64.85;;;11.90;79.70;;;;;;4853873;29;20420;-93
2023/07/26 02:19:12;;;;;;;31.25;28.63;;;11.50;80.60;;;;;;4687978;30;20100;-93
2023/07/26 06:17:16;;;;;;;22.65;20.45;;;12.40;82.30;;;;;;6240799;22;20332;-92
2023/07/26 06:19:45;;;;;;;57.40;53.47;;;12.30;81.70;;;;;;6038508;22;3465651;-90
2023/07/26 06:22:14;;;;;;;115.55;107.85;;;12.40;81.60;;;;;;6258302;22;20107;-90
2023/07/26 06:24:39;;;;;;;195.75;183.07;;;12.50;81.70;;;;;;6260253;22;20024;-88
2023/07/26 06:27:06;;;;;;;243.25;227.15;;;12.50;81.90;;;;;;6276672;22;20746;-91
2023/07/26 06:29:33;;;;;;;257.20;240.77;;;12.50;81.80;;;;;;6260063;22;20015;-91
2023/07/26 06:31:59;;;;;;;319.75;299.60;;;12.60;82.00;;;;;;6260200;22;20054;-90
2023/07/26 06:34:26;;;;;;;279.40;261.83;;;12.70;81.90;;;;;;6106228;22;20593;-90
2023/07/26 06:36:51;;;;;;;301.10;281.95;;;12.80;81.80;;;;;;6098180;23;20720;-92
2023/07/26 06:39:17;;;;;;;272.75;256.67;;;12.90;81.40;;;;;;6105552;23;20021;-90
2023/07/26 06:41:43;;;;;;;263.98;248.25;;;12.90;81.30;;;;;;6105487;23;20018;-88
2023/07/26 06:44:09;;;;;;;278.05;262.20;;;12.90;81.20;;;;;;6104359;23;20513;-89
2023/07/26 06:46:38;;;;;;;312.33;292.67;;;12.90;80.40;;;;;;6100837;23;20021;-91
2023/07/26 06:49:04;;;;;;;249.45;234.65;;;13.00;80.40;;;;;;6102964;23;20025;-89
2023/07/26 06:51:30;;;;;;;288.80;270.95;;;13.00;80.20;;;;;;6105132;23;20022;-89
2023/07/26 06:53:56;;;;;;;342.10;321.08;;;13.10;80.30;;;;;;6076146;23;20022;-88
2023/07/26 06:56:22;;;;;;;309.25;290.27;;;13.10;80.50;;;;;;6098705;23;20018;-89
2023/07/26 06:58:48;;;;;;;311.90;292.65;;;13.10;79.90;;;;;;6084431;23;20148;-89
2023/07/26 07:01:47;;;;;;;351.30;330.02;;;13.30;79.30;;;;;;6077092;23;20026;-94
2023/07/26 07:04:13;;;;;;;295.33;278.00;;;13.30;79.40;;;;;;6077771;23;20018;-90
2023/07/26 07:06:47;;;;;;;287.77;271.23;;;13.20;79.10;;;;;;6071545;23;20013;-91
2023/07/26 07:09:16;;;;;;;337.13;316.48;;;13.10;79.20;;;;;;6075903;23;20517;-89
2023/07/26 07:11:50;;;;;;;338.50;317.38;;;13.10;79.80;;;;;;6102323;23;20022;-92
2023/07/26 07:14:20;;;;;;;325.08;305.05;;;13.10;80.00;;;;;;6079418;22;20096;-90
2023/07/26 07:16:46;;;;;;;295.23;277.25;;;13.10;80.30;;;;;;6090934;23;20574;-90
2023/07/26 07:19:14;;;;;;;341.75;320.23;;;13.10;80.50;;;;;;6114296;23;20395;-91
2023/07/26 07:21:41;;;;;;;337.52;316.95;;;13.10;80.50;;;;;;6123838;23;20017;-90
2023/07/26 07:24:07;;;;;;;334.45;314.58;;;13.20;80.50;;;;;;6081154;23;20021;-88
2023/07/26 07:26:36;;;;;;;325.50;305.88;;;13.30;80.50;;;;;;6116927;23;20025;-93
2023/07/26 07:29:05;;;;;;;348.05;327.40;;;13.30;79.90;;;;;;6123582;23;20561;-89
2023/07/26 07:31:34;;;;;;;368.48;345.63;;;13.40;80.10;;;;;;6116320;23;20025;-89
2023/07/26 07:34:03;;;;;;;315.13;295.67;;;13.50;79.70;;;;;;6075543;23;20033;-88
2023/07/26 07:36:31;;;;;;;324.00;304.73;;;13.50;79.20;;;;;;6128914;22;20018;-90
2023/07/26 07:38:59;;;;;;;346.45;324.70;;;13.50;79.00;;;;;;6058808;23;20748;-92
2023/07/26 07:41:25;;;;;;;329.33;309.25;;;13.50;78.10;;;;;;6085418;23;20029;-90
2023/07/26 07:43:51;;;;;;;299.65;282.63;;;13.60;78.20;;;;;;6108964;22;20112;-90
2023/07/26 07:46:20;;;;;;;342.98;322.45;;;13.60;78.10;;;;;;6085696;23;20028;-89
2023/07/26 07:48:46;;;;;;;332.38;312.58;;;13.70;78.30;;;;;;6099022;22;20458;-90
2023/07/26 07:51:12;;;;;;;303.58;286.13;;;13.70;78.00;;;;;;6113916;23;20024;-89
2023/07/26 07:53:46;;;;;;;355.80;334.45;;;13.80;77.50;;;;;;6109517;23;20121;-92
2023/07/26 07:56:25;;;;;;;362.75;340.83;;;13.90;77.70;;;;;;6113957;23;20401;-95
2023/07/26 07:58:54;;;;;;;319.50;300.85;;;14.00;77.70;;;;;;6201202;22;20027;-90
2023/07/26 08:01:20;;;;;;;332.50;313.38;;;14.00;77.60;;;;;;6106828;23;20415;-90
2023/07/26 08:03:48;;;;;;;364.20;342.67;;;14.00;77.20;;;;;;6133915;22;20522;-89
2023/07/26 08:06:17;;;;;;;307.25;289.80;;;14.00;76.90;;;;;;6112884;23;20020;-89
2023/07/26 08:08:45;;;;;;;356.52;335.55;;;14.00;76.60;;;;;;6084103;23;20018;-89
2023/07/26 08:11:13;;;;;;;331.77;312.38;;;14.00;76.10;;;;;;6135968;23;20085;-89
2023/07/26 08:13:39;;;;;;;365.13;344.10;;;14.00;76.00;;;;;;6108436;23;20021;-89
2023/07/26 08:16:09;;;;;;;336.85;317.15;;;14.10;76.10;;;;;;6062075;23;20021;-89
2023/07/26 08:18:40;;;;;;;356.60;335.58;;;14.20;76.30;;;;;;6101810;22;20530;-91
2023/07/26 08:21:06;;;;;;;372.35;350.48;;;14.30;76.20;;;;;;6109520;23;20017;-89
2023/07/26 08:23:33;;;;;;;340.63;320.60;;;14.30;75.70;;;;;;6171160;22;20030;-89
2023/07/26 08:26:03;;;;;;;335.23;316.00;;;14.40;75.60;;;;;;6111826;23;20013;-89
2023/07/26 08:28:29;;;;;;;334.73;315.02;;;14.40;75.50;;;;;;6102271;23;20044;-89
2023/07/26 08:30:58;;;;;;;358.13;336.83;;;14.40;75.30;;;;;;6110838;23;20052;-91
2023/07/26 08:33:23;;;;;;;337.38;317.35;;;14.50;74.70;;;;;;6110148;23;20022;-89
2023/07/26 08:35:52;;;;;;;344.70;324.40;;;14.60;74.30;;;;;;6111213;23;20032;-90
2023/07/26 08:38:22;;;;;;;363.27;341.75;;;14.60;74.60;;;;;;6103897;23;20636;-92
2023/07/26 08:40:58;;;;;;;356.70;335.98;;;14.70;74.70;;;;;;6088337;23;20031;-91
2023/07/26 08:43:31;;;;;;;366.55;344.33;;;14.80;74.90;;;;;;6086314;23;20440;-91
2023/07/26 08:46:02;;;;;;;351.35;330.10;;;14.90;74.90;;;;;;6111485;23;20306;-94
2023/07/26 08:48:28;;;;;;;373.30;351.42;;;15.00;74.80;;;;;;6097618;23;20028;-90
2023/07/26 08:50:57;;;;;;;360.40;338.75;;;15.00;74.50;;;;;;6111798;23;20504;-92
2023/07/26 08:53:24;;;;;;;363.67;342.63;;;15.00;74.60;;;;;;6162710;22;20098;-91
2023/07/26 08:55:50;;;;;;;372.15;350.23;;;15.10;74.30;;;;;;6147549;23;20379;-91
2023/07/26 08:58:16;;;;;;;394.13;369.55;;;15.20;74.30;;;;;;6103145;23;20021;-89
2023/07/26 09:00:42;;;;;;;379.52;355.45;;;15.30;74.30;;;;;;6110957;23;20124;-90
2023/07/26 09:03:10;;;;;;;402.25;375.27;;;15.30;74.50;;;;;;6097520;23;20021;-90
2023/07/26 09:05:39;;;;;;;372.30;348.20;;;15.40;74.60;;;;;;6086717;23;20017;-91
2023/07/26 09:08:05;;;;;;;397.13;372.25;;;15.40;74.40;;;;;;6103491;23;20037;-90
2023/07/26 09:10:32;;;;;;;386.05;363.23;;;15.50;75.20;;;;;;6111197;23;20106;-90
2023/07/26 09:13:10;;;;;;;390.52;367.58;;;15.60;74.60;;;;;;6141775;22;20019;-91
2023/07/26 09:15:37;;;;;;;413.70;387.15;;;15.60;73.70;;;;;;6157162;23;20021;-90
2023/07/26 09:18:07;;;;;;;369.77;347.10;;;15.60;74.30;;;;;;6100954;23;20029;-90
2023/07/26 09:20:34;;;;;;;464.65;432.52;;;15.60;74.30;;;;;;6110217;23;20017;-90
2023/07/26 09:23:16;;;;;;;428.42;399.08;;;15.80;73.00;;;;;;6083201;23;20852;-91
2023/07/26 09:25:45;;;;;;;371.48;347.05;;;15.80;73.90;;;;;;6110833;23;20454;-90
2023/07/26 09:28:26;;;;;;;;;;;;;;;;;;;;;
2023/07/26 09:31:01;;;;;;;400.80;374.60;;;16.00;73.60;;;;;;6114239;23;20019;-90
2023/07/26 09:33:28;;;;;;;450.27;418.33;;;16.00;73.30;;;;;;6165304;22;20897;-90
2023/07/26 09:35:54;;;;;;;444.75;413.38;;;16.00;73.20;;;;;;6163353;22;20052;-89
2023/07/26 09:38:25;;;;;;;452.77;422.77;;;16.10;73.80;;;;;;6103831;23;20482;-90
2023/07/26 09:40:51;;;;;;;431.63;401.02;;;16.20;73.30;;;;;;6134537;23;20023;-91
2023/07/26 09:43:31;;;;;;;453.58;424.63;;;16.20;72.90;;;;;;6179607;22;20641;-90
2023/07/26 09:46:06;;;;;;;403.33;379.27;;;16.20;72.20;;;;;;6130993;23;20104;-88
2023/07/26 09:48:33;;;;;;;417.83;391.60;;;16.10;72.70;;;;;;6101832;23;20029;-88
2023/07/26 09:51:08;;;;;;;415.75;390.67;;;16.10;72.90;;;;;;6109473;23;20035;-88
2023/07/26 09:53:36;;;;;;;489.90;457.00;;;16.20;72.90;;;;;;6172823;22;20073;-90
2023/07/26 09:56:02;;;;;;;496.70;458.75;;;16.40;72.90;;;;;;6131059;23;20021;-90
2023/07/26 09:58:34;;;;;;;471.92;440.45;;;16.40;72.80;;;;;;6078304;23;20429;-90
2023/07/26 10:01:01;;;;;;;492.70;458.17;;;16.40;73.00;;;;;;6109799;23;20099;-90
2023/07/26 10:03:30;;;;;;;554.00;509.48;;;16.20;73.70;;;;;;6168293;22;20540;-91
2023/07/26 10:05:57;;;;;;;490.70;454.80;;;16.10;74.50;;;;;;6139503;23;20028;-92
2023/07/26 10:08:23;;;;;;;507.15;467.88;;;15.90;75.00;;;;;;6104173;22;20021;-92
2023/07/26 10:10:52;;;;;;;426.52;398.30;;;15.80;75.60;;;;;;6112052;23;20028;-91
2023/07/26 10:13:26;;;;;;;478.98;444.85;;;15.60;75.20;;;;;;6107385;23;20025;-90
2023/07/26 10:15:56;;;;;;;458.10;424.77;;;15.60;75.80;;;;;;6106817;23;20390;-91
2023/07/26 10:18:27;;;;;;;441.17;409.58;;;15.60;75.30;;;;;;6101487;23;20017;-90
2023/07/26 10:20:54;;;;;;;479.83;444.83;;;15.60;74.70;;;;;;6108106;23;20102;-89
2023/07/26 10:23:20;;;;;;;433.27;404.92;;;15.80;75.50;;;;;;6081468;23;20096;-90
2023/07/26 10:25:47;;;;;;;489.80;452.83;;;15.80;75.60;;;;;;6106391;23;20017;-90
2023/07/26 10:28:14;;;;;;;445.88;417.70;;;16.00;75.10;;;;;;6145921;22;20093;-90
2023/07/26 10:30:40;;;;;;;479.88;444.73;;;16.00;74.80;;;;;;6125905;23;20021;-92
2023/07/26 10:33:33;;;;;;;490.40;457.45;;;16.00;73.60;;;;;;6106747;22;20108;-90
2023/07/26 10:39:32;;;;;;;355.48;332.58;;;16.30;70.60;;;;;;5011702;27;1626741;-91
2023/07/26 10:41:58;;;;;;;375.85;350.75;;;16.20;70.50;;;;;;5036905;28;20053;-90
2023/07/26 10:44:28;;;;;;;485.48;454.50;;;16.20;71.00;;;;;;4976769;28;20092;-93
2023/07/26 10:47:23;;;;;;;483.55;451.38;;;16.20;71.40;;;;;;4995178;28;20129;-94
2023/07/26 10:49:49;;;;;;;480.88;448.88;;;16.10;71.50;;;;;;4972628;28;20076;-91
2023/07/26 10:52:19;;;;;;;452.17;422.20;;;15.60;72.50;;;;;;4975527;28;20682;-94
2023/07/26 10:55:16;;;;;;;407.73;382.65;;;15.30;73.00;;;;;;4984153;28;20080;-92
2023/07/26 10:57:48;;;;;;;369.65;345.35;;;14.90;73.40;;;;;;4993439;28;20057;-90
2023/07/26 11:00:22;;;;;;;368.42;346.75;;;14.40;74.00;;;;;;4999196;28;20578;-90
2023/07/26 11:03:02;;;;;;;349.75;328.50;;;14.00;74.70;;;;;;4985776;28;20056;-91
2023/07/26 11:05:32;;;;;;;315.70;297.35;;;13.70;75.40;;;;;;4990798;28;20057;-90
2023/07/26 11:08:08;;;;;;;333.83;314.30;;;13.50;75.90;;;;;;4972025;28;20108;-89
2023/07/26 11:10:48;;;;;;;331.40;312.45;;;13.30;76.80;;;;;;5010694;28;20638;-90
2023/07/26 11:13:28;;;;;;;322.77;304.13;;;13.10;77.30;;;;;;4992919;28;20485;-91
2023/07/26 11:15:54;;;;;;;337.65;317.45;;;13.10;77.80;;;;;;4996069;28;20085;-90
2023/07/26 11:18:21;;;;;;;364.15;341.85;;;13.00;78.00;;;;;;4980326;28;20045;-90
2023/07/26 11:20:51;;;;;;;338.73;317.80;;;12.90;78.60;;;;;;4997686;28;20053;-91
2023/07/26 11:23:25;;;;;;;318.08;299.58;;;12.90;78.40;;;;;;4977362;28;20057;-91
2023/07/26 11:26:01;;;;;;;328.55;308.45;;;12.90;78.70;;;;;;4998550;28;20103;-91
2023/07/26 11:28:32;;;;;;;307.10;287.88;;;12.90;78.90;;;;;;4989305;28;20061;-90
2023/07/26 11:31:01;;;;;;;266.02;250.13;;;12.90;79.00;;;;;;4989183;28;20057;-90
2023/07/26 11:34:03;;;;;;;288.35;270.50;;;12.90;78.90;;;;;;4993138;28;20072;-90
2023/07/26 11:36:29;;;;;;;276.27;259.25;;;13.00;79.30;;;;;;4996082;28;20049;-91
2023/07/26 11:38:58;;;;;;;302.50;283.95;;;13.20;79.30;;;;;;4979806;28;20111;-90
2023/07/26 11:41:23;;;;;;;326.85;307.25;;;13.30;79.30;;;;;;4979149;28;20583;-89
2023/07/26 11:43:49;;;;;;;338.52;317.77;;;13.50;78.90;;;;;;4983364;28;20161;-89
2023/07/26 11:46:28;;;;;;;323.75;304.42;;;13.60;78.90;;;;;;5010513;28;20123;-89
2023/07/26 11:48:56;;;;;;;344.42;323.40;;;13.80;78.60;;;;;;4989654;28;21531;-88
2023/07/26 11:51:25;;;;;;;292.25;274.88;;;14.00;78.60;;;;;;4979802;28;20140;-89
2023/07/26 11:53:54;;;;;;;286.90;270.30;;;14.20;77.90;;;;;;4955074;28;20049;-88
2023/07/26 11:56:28;;;;;;;352.45;331.48;;;14.40;77.80;;;;;;4983538;28;20058;-88
2023/07/26 11:58:58;;;;;;;377.30;354.70;;;14.60;77.90;;;;;;4989418;28;20068;-89
2023/07/26 12:01:24;;;;;;;362.20;341.10;;;14.70;77.60;;;;;;5003510;28;20543;-89
2023/07/26 12:03:51;;;;;;;503.23;470.05;;;14.90;77.80;;;;;;4964004;28;20046;-91
2023/07/26 12:07:00;;;;;;;382.50;359.15;;;15.20;78.90;;;;;;4982270;28;20824;-92
2023/07/26 12:09:26;;;;;;;349.80;328.02;;;15.40;79.00;;;;;;4947784;28;21413;-93
2023/07/26 12:13:07;;;;;;;;;;;;;;;;;;;;;
2023/07/26 12:20:32;;;;;;;351.15;330.52;;;15.60;77.20;;;;;;4872113;29;20142;-91
2023/07/26 12:23:30;;;;;;;367.08;345.27;;;15.60;76.20;;;;;;4899305;28;20317;-92
2023/07/26 12:26:00;;;;;;;356.23;335.42;;;15.60;76.50;;;;;;4938179;28;20077;-91
2023/07/26 12:28:37;;;;;;;362.00;340.92;;;15.60;77.20;;;;;;4927463;28;20503;-92
2023/07/26 12:31:26;;;;;;;;;;;;;;;;;;;;;
2023/07/26 12:34:04;;;;;;;401.63;375.63;;;15.80;76.50;;;;;;5002623;28;20058;-91
2023/07/26 12:40:14;;;;;;;352.77;331.58;;;16.00;76.50;;;;;;5009099;28;21241;-91
2023/07/26 12:42:43;;;;;;;429.73;401.45;;;16.10;76.60;;;;;;4990501;28;20073;-92
2023/07/26 12:45:26;;;;;;;367.30;344.30;;;16.20;76.10;;;;;;4969299;28;21249;-94
2023/07/26 12:48:08;;;;;;;385.35;362.45;;;16.40;75.60;;;;;;4960839;28;20057;-88
2023/07/26 12:50:34;;;;;;;397.25;373.05;;;16.50;74.60;;;;;;4962962;28;20050;-89
2023/07/26 12:53:02;;;;;;;384.67;361.27;;;16.60;74.80;;;;;;4950029;28;20414;-90
2023/07/26 12:55:40;;;;;;;390.30;363.40;;;16.60;74.10;;;;;;4955954;28;20050;-91
2023/07/26 12:58:06;;;;;;;440.70;412.38;;;16.60;74.00;;;;;;4972251;28;20498;-89
2023/07/26 13:00:33;;;;;;;427.45;401.17;;;16.60;73.70;;;;;;4974909;28;20050;-88
2023/07/26 13:02:59;;;;;;;403.73;376.63;;;16.70;73.70;;;;;;4998591;28;20050;-93
2023/07/26 13:05:25;;;;;;;446.23;413.58;;;16.80;73.60;;;;;;4981521;28;20038;-89
2023/07/26 13:07:54;;;;;;;438.85;411.48;;;17.00;73.40;;;;;;4968352;28;20053;-93
2023/07/26 13:10:33;;;;;;;432.60;401.55;;;17.10;73.00;;;;;;4976393;28;20439;-90
2023/07/26 13:13:25;;;;;;;545.47;504.90;;;17.20;71.60;;;;;;4974739;28;20168;-89
2023/07/26 13:15:54;;;;;;;466.63;435.85;;;17.20;70.70;;;;;;4963473;28;20060;-91
2023/07/26 13:18:20;;;;;;;441.67;408.42;;;17.20;69.00;;;;;;4969209;28;20056;-91
2023/07/26 13:20:46;;;;;;;406.17;376.92;;;17.20;69.60;;;;;;4971806;28;21747;-92
2023/07/26 13:23:12;;;;;;;443.35;413.33;;;17.10;68.70;;;;;;4964653;28;20135;-90
2023/07/26 13:25:39;;;;;;;555.28;510.85;;;17.10;69.30;;;;;;4973007;28;20042;-90
2023/07/26 13:28:12;;;;;;;401.30;374.45;;;17.20;68.50;;;;;;4974194;28;20064;-90
2023/07/26 13:30:48;;;;;;;;;;;;;;;;;;;;;
2023/07/26 13:33:23;;;;;;;340.77;319.55;;;17.40;69.10;;;;;;4972834;28;20517;-90
2023/07/26 13:35:58;;;;;;;339.15;317.90;;;17.50;68.40;;;;;;4995338;28;20050;-94
2023/07/26 13:38:31;;;;;;;429.40;403.33;;;17.50;68.00;;;;;;4973385;28;20061;-94
2023/07/26 13:41:08;;;;;;;372.02;348.80;;;17.50;69.60;;;;;;4980246;28;20060;-92
2023/07/26 13:43:33;;;;;;;459.73;431.67;;;17.50;69.60;;;;;;4958774;28;20621;-91
2023/07/26 13:46:09;;;;;;;459.13;431.33;;;17.50;69.20;;;;;;4977799;28;20280;-92
2023/07/26 13:48:35;;;;;;;465.98;437.42;;;17.60;69.00;;;;;;4966425;28;20050;-90
2023/07/26 13:51:02;;;;;;;386.60;360.92;;;17.80;69.40;;;;;;4979386;28;20107;-89
2023/07/26 13:53:27;;;;;;;435.33;409.15;;;17.80;69.60;;;;;;4973261;28;20058;-90
2023/07/26 13:56:26;;;;;;;425.35;398.60;;;18.00;68.90;;;;;;4978340;28;20050;-91
2023/07/26 13:58:54;;;;;;;395.33;370.70;;;18.00;69.00;;;;;;4960449;28;20045;-92
2023/07/26 14:01:20;;;;;;;450.50;423.67;;;18.00;68.10;;;;;;4982375;28;20087;-89
2023/07/26 14:03:47;;;;;;;358.23;334.80;;;18.10;67.00;;;;;;4950219;28;20215;-90
2023/07/26 14:06:19;;;;;;;449.42;421.55;;;18.10;66.60;;;;;;4962349;28;20878;-91
2023/07/26 14:08:46;;;;;;;446.60;418.88;;;18.30;66.60;;;;;;4968378;28;20053;-91
2023/07/26 14:11:15;;;;;;;512.25;479.13;;;18.40;66.20;;;;;;4964480;28;20045;-89
2023/07/26 14:13:50;;;;;;;488.13;453.27;;;18.50;66.40;;;;;;4984463;28;20154;-93
2023/07/26 14:16:19;;;;;;;450.88;416.98;;;18.60;64.30;;;;;;4979031;28;20050;-90
2023/07/26 14:18:47;;;;;;;480.10;450.70;;;18.60;65.10;;;;;;4955068;28;20049;-90
2023/07/26 14:21:16;;;;;;;555.60;517.03;;;18.60;65.00;;;;;;4977994;28;20053;-92
2023/07/26 14:23:42;;;;;;;485.48;454.33;;;18.70;64.90;;;;;;4978589;28;20050;-89
2023/07/26 14:26:11;;;;;;;456.10;425.58;;;18.70;64.80;;;;;;4980167;28;20069;-91
2023/07/26 14:28:40;;;;;;;522.10;488.10;;;18.80;65.80;;;;;;4970233;28;20061;-91
2023/07/26 14:31:06;;;;;;;437.42;406.20;;;18.80;65.80;;;;;;4960703;28;20045;-90
2023/07/26 14:33:34;;;;;;;451.75;421.85;;;18.90;66.30;;;;;;4958391;28;21685;-90
2023/07/26 14:36:12;;;;;;;493.98;457.05;;;19.00;65.60;;;;;;4967838;28;20552;-91
2023/07/26 14:38:40;;;;;;;545.40;508.02;;;19.10;64.60;;;;;;4947636;28;20073;-90
2023/07/26 14:41:36;;;;;;;518.58;483.83;;;19.20;65.00;;;;;;4967831;28;20910;-91
2023/07/26 14:44:09;;;;;;;638.03;582.95;;;19.10;63.40;;;;;;4939862;28;20533;-91
2023/07/26 14:46:46;;;;;;;585.88;537.45;;;19.20;63.70;;;;;;4953294;28;20046;-91
2023/07/26 14:49:14;;;;;;;530.50;492.55;;;19.10;62.50;;;;;;4969040;28;20140;-90
2023/07/26 14:51:46;;;;;;;559.83;520.35;;;18.90;63.20;;;;;;4966754;28;20239;-93
2023/07/26 14:54:12;;;;;;;517.88;477.33;;;19.00;62.90;;;;;;4949063;28;20174;-90
2023/07/26 14:56:41;;;;;;;545.08;499.38;;;18.90;62.10;;;;;;4950317;28;21354;-93
2023/07/26 14:59:10;;;;;;;519.22;482.65;;;18.90;61.60;;;;;;4959970;28;20053;-90
2023/07/26 15:01:35;;;;;;;495.30;462.67;;;18.70;63.10;;;;;;4966377;28;20054;-90
2023/07/26 15:04:02;;;;;;;603.30;549.38;;;18.70;64.00;;;;;;4948811;28;21140;-90
2023/07/26 15:06:31;;;;;;;580.47;530.53;;;18.70;62.80;;;;;;4986207;28;20721;-90
2023/07/26 15:08:56;;;;;;;538.78;501.17;;;18.50;63.00;;;;;;4960886;28;20046;-89
2023/07/26 15:11:25;;;;;;;486.83;451.08;;;18.30;63.80;;;;;;4973168;28;20083;-91
2023/07/26 15:13:57;;;;;;;487.35;455.63;;;18.20;64.70;;;;;;4957375;28;20057;-94
2023/07/26 15:16:22;;;;;;;;;;;18.20;65.90;;;;;;4969379;28;20132;-89
2023/07/26 15:18:54;;;;;;;454.33;426.92;;;18.30;65.70;;;;;;4947288;28;21159;-93
2023/07/26 15:25:59;;;;;;;485.25;453.70;;;18.50;64.70;;;;;;4812182;29;20073;-96
2023/07/26 15:28:43;;;;;;;;;;;;;;;;;;;;;
2023/07/26 15:31:49;;;;;;;;;;;;;;;;;;;;;
2023/07/26 15:42:34;;;;;;;600.50;549.17;;;18.50;66.20;;;;;;4775716;29;20054;-92
2023/07/26 15:45:24;;;;;;;425.23;398.67;;;18.60;64.40;;;;;;4722915;30;20083;-93
2023/07/26 15:47:53;;;;;;;484.25;452.95;;;18.60;63.00;;;;;;4712610;30;20081;-94
2023/07/26 15:50:59;;;;;;;475.60;444.98;;;18.80;64.40;;;;;;4741319;29;20054;-94
2023/07/26 15:54:25;;;;;;;445.40;417.55;;;18.80;61.90;;;;;;4757253;29;20077;-94
2023/07/26 16:01:28;;;;;;;461.23;430.25;;;19.00;62.50;;;;;;4769044;29;21453;-95
2023/07/26 16:04:07;;;;;;;570.95;527.40;;;19.10;62.10;;;;;;4745900;29;20160;-93
2023/07/26 16:07:18;;;;;;;;;;;;;;;;;;;;;
2023/07/26 16:10:36;;;;;;;531.65;491.15;;;18.90;63.30;;;;;;4803731;29;20586;-95
2023/07/26 16:14:03;;;;;;;501.58;468.83;;;18.90;62.70;;;;;;4833711;29;20067;-92
2023/07/26 16:24:10;;;;;;;471.90;442.30;;;18.80;65.20;;;;;;4810857;29;20045;-91
2023/07/26 16:26:58;;;;;;;466.35;435.90;;;18.60;65.60;;;;;;4847107;29;20068;-92
2023/07/26 16:29:32;;;;;;;501.45;467.38;;;18.50;65.50;;;;;;4833030;28;20075;-91
2023/07/26 16:32:35;;;;;;;569.90;527.08;;;18.70;66.20;;;;;;4963335;28;20058;-94
2023/07/26 16:39:05;;;;;;;462.75;432.80;;;19.20;62.90;;;;;;4899483;29;20314;-92
2023/07/26 16:41:55;;;;;;;467.63;436.63;;;19.10;62.20;;;;;;4878426;29;20738;-92
2023/07/26 16:47:45;;;;;;;574.10;528.78;;;19.10;64.60;;;;;;4861405;29;20056;-91
2023/07/26 16:50:17;;;;;;;472.45;440.83;;;18.90;64.90;;;;;;4917435;28;20076;-94
2023/07/26 17:02:01;;;;;;;;;;;;;;;;;;;;;
2023/07/26 17:05:24;;;;;;;465.52;435.50;;;18.60;64.70;;;;;;4837858;29;20079;-93
2023/07/26 17:09:11;;;;;;;587.95;541.85;;;18.50;64.70;;;;;;4821625;29;20062;-95
2023/07/26 17:12:28;;;;;;;413.10;383.88;;;18.40;64.70;;;;;;4804739;29;20119;-95
2023/07/26 17:15:33;;;;;;;433.42;406.58;;;18.50;64.10;;;;;;4778877;29;20057;-93
2023/07/26 17:18:07;;;;;;;443.95;416.30;;;18.50;64.10;;;;;;4759818;29;20055;-92
2023/07/26 17:20:52;;;;;;;535.67;496.25;;;18.40;64.70;;;;;;4791048;29;20137;-92
2023/07/26 17:24:09;;;;;;;;;;;;;;;;;;;;;
2023/07/26 17:32:19;;;;;;;412.00;386.20;;;18.20;64.90;;;;;;4709586;30;20055;-90
2023/07/26 17:34:57;;;;;;;431.35;404.73;;;18.10;65.10;;;;;;4652925;30;21479;-93
2023/07/26 17:48:31;;;;;;;369.90;347.38;;;18.00;66.50;;;;;;4750161;29;20055;-92
2023/07/26 17:55:52;;;;;;;;;;;;;;;;;;;;;
2023/07/26 18:08:57;;;;;;;761.57;690.77;;;17.70;67.10;;;;;;5333593;22;20917781;-91
2023/07/26 18:19:48;;;;;;;;;;;;;;;;;;;;;
2023/07/26 18:22:17;;;;;;;387.05;363.98;;;17.20;66.50;;;;;;6128580;23;20096;-92
2023/07/26 18:24:43;;;;;;;415.35;388.58;;;17.20;67.40;;;;;;6181126;23;20017;-90
2023/07/26 18:27:34;;;;;;;;;;;;;;;;;;;;;
2023/07/26 18:30:06;;;;;;;395.05;371.58;;;17.10;66.90;;;;;;6129531;23;20345;-90
2023/07/26 18:32:32;;;;;;;398.50;374.65;;;17.00;67.90;;;;;;6156253;23;20109;-91
2023/07/26 18:35:00;;;;;;;387.77;364.63;;;17.00;68.00;;;;;;6157218;23;20654;-88
2023/07/26 18:37:26;;;;;;;398.20;374.17;;;17.00;68.20;;;;;;6129103;23;20013;-89
2023/07/26 18:39:53;;;;;;;392.02;368.15;;;17.00;68.20;;;;;;6161071;23;20078;-88
2023/07/26 18:42:26;;;;;;;400.08;375.45;;;16.90;68.20;;;;;;6160096;23;20055;-88
2023/07/26 18:44:52;;;;;;;401.10;376.42;;;16.90;68.40;;;;;;6159728;23;20025;-87
2023/07/26 18:47:18;;;;;;;393.13;369.58;;;16.80;68.60;;;;;;6151778;23;20436;-88
2023/07/26 18:49:46;;;;;;;404.23;378.83;;;16.80;68.60;;;;;;6135583;23;20444;-89
2023/07/26 18:52:12;;;;;;;381.42;358.73;;;16.70;68.40;;;;;;6159249;23;20044;-89
2023/07/26 18:54:38;;;;;;;376.77;354.58;;;16.70;68.50;;;;;;6160778;23;20712;-89
2023/07/26 18:57:04;;;;;;;376.80;354.50;;;16.70;68.50;;;;;;6152902;23;20167;-89
2023/07/26 18:59:30;;;;;;;384.70;361.83;;;16.60;68.60;;;;;;6159667;23;20016;-90
2023/07/26 19:01:56;;;;;;;352.30;331.08;;;16.60;68.70;;;;;;6135680;23;20059;-89
2023/07/26 19:04:22;;;;;;;385.48;362.63;;;16.50;68.80;;;;;;6184693;23;20020;-91
2023/07/26 19:06:48;;;;;;;547.88;506.77;;;16.40;68.80;;;;;;6153929;23;20013;-91
2023/07/26 19:09:14;;;;;;;388.10;364.92;;;16.40;68.80;;;;;;6180630;23;20514;-89
2023/07/26 19:11:40;;;;;;;373.95;351.60;;;16.40;68.90;;;;;;6183513;23;20021;-88